createdAt,value
2024-03-03T00:04:39.665Z,67
2024-03-03T00:14:48.329Z,67
2024-03-03T00:24:57.101Z,66
2024-03-03T00:35:05.974Z,64
2024-03-03T00:45:14.686Z,63
2024-03-03T00:55:23.489Z,64
2024-03-03T01:05:32.247Z,63
2024-03-03T01:15:40.950Z,62
2024-03-03T01:25:49.761Z,64
2024-03-03T01:35:58.386Z,63
2024-03-03T01:46:08.022Z,62
2024-03-03T01:56:16.642Z,60
2024-03-03T02:06:25.446Z,62
2024-03-03T02:16:34.153Z,62
2024-03-03T02:26:42.882Z,61
2024-03-03T02:36:51.611Z,59
2024-03-03T02:47:00.244Z,60
2024-03-03T02:57:08.992Z,61
2024-03-03T03:07:17.908Z,62
2024-03-03T03:17:26.665Z,62
2024-03-03T03:27:35.482Z,62
2024-03-03T03:37:44.227Z,61
2024-03-03T03:47:53.041Z,60
2024-03-03T03:58:01.736Z,60
2024-03-03T04:08:10.334Z,61
2024-03-03T04:18:20.338Z,61
2024-03-03T04:28:26.403Z,61
2024-03-03T04:38:35.121Z,61
2024-03-03T04:48:43.957Z,61
2024-03-03T04:58:53.881Z,62
2024-03-03T05:09:01.665Z,62
2024-03-03T05:19:10.515Z,61
2024-03-03T05:29:19.271Z,61
2024-03-03T05:39:27.873Z,60
2024-03-03T05:49:36.583Z,60
2024-03-03T05:59:45.400Z,61
2024-03-03T06:09:54.107Z,61
2024-03-03T06:20:02.914Z,64
2024-03-03T06:30:11.769Z,67
2024-03-03T06:40:20.614Z,72
2024-03-03T06:50:29.258Z,76
2024-03-03T07:00:37.972Z,79
2024-03-03T07:10:47.946Z,80
2024-03-03T07:20:56.610Z,80
2024-03-03T07:31:05.484Z,79
2024-03-03T07:41:14.230Z,77
2024-03-03T07:51:23.184Z,76
2024-03-03T08:01:31.805Z,75
2024-03-03T08:11:40.561Z,74
2024-03-03T08:21:49.329Z,72
2024-03-03T08:31:58.183Z,70
2024-03-03T08:42:06.095Z,70
2024-03-03T08:52:14.894Z,72
2024-03-03T09:02:23.740Z,72
2024-03-03T09:12:32.437Z,72
2024-03-03T09:22:40.779Z,72
2024-03-03T09:32:50.021Z,70
2024-03-03T09:42:59.068Z,71
2024-03-03T09:53:07.766Z,69
2024-03-03T10:03:16.759Z,68
2024-03-03T10:13:25.613Z,61
2024-03-03T10:23:34.576Z,59
2024-03-03T10:33:43.464Z,58
2024-03-03T10:43:52.139Z,57
2024-03-03T10:54:01.536Z,55
2024-03-03T11:04:10.260Z,52
2024-03-03T11:14:19.008Z,49
2024-03-03T11:24:27.903Z,47
2024-03-03T11:34:36.713Z,48
2024-03-03T11:44:45.591Z,46
2024-03-03T11:54:55.653Z,45
2024-03-03T12:05:04.414Z,45
2024-03-03T12:15:14.754Z,46
2024-03-03T12:25:13.618Z,46
2024-03-03T12:35:22.496Z,45
2024-03-03T12:45:31.164Z,46
2024-03-03T12:55:40.106Z,46
2024-03-03T13:05:49.038Z,45
2024-03-03T13:15:57.440Z,45
2024-03-03T13:26:06.316Z,45
2024-03-03T13:36:15.886Z,43
2024-03-03T13:46:15.704Z,43
2024-03-03T13:56:24.386Z,41
2024-03-03T14:06:34.269Z,40
2024-03-03T14:16:43.173Z,40
2024-03-03T14:26:52.155Z,39
2024-03-03T14:37:01.012Z,38
2024-03-03T14:47:10.124Z,38
2024-03-03T14:57:17.500Z,38
2024-03-03T15:07:26.353Z,38
2024-03-03T15:17:35.077Z,38
2024-03-03T15:27:43.898Z,38
2024-03-03T15:37:52.916Z,37
2024-03-03T15:48:01.808Z,37
2024-03-03T15:58:11.702Z,37
2024-03-03T16:08:19.845Z,38
2024-03-03T16:18:28.532Z,38
2024-03-03T16:28:37.261Z,38
2024-03-03T16:38:47.817Z,39
2024-03-03T16:48:55.218Z,39
2024-03-03T16:59:03.985Z,39
2024-03-03T17:09:12.786Z,40
2024-03-03T17:19:21.429Z,41
2024-03-03T17:29:30.515Z,41
2024-03-03T17:39:39.468Z,42
2024-03-03T17:49:48.347Z,42
2024-03-03T17:59:57.170Z,43
2024-03-03T18:10:05.868Z,42
2024-03-03T18:20:14.591Z,42
2024-03-03T18:30:23.514Z,43
2024-03-03T18:40:32.375Z,43
2024-03-03T18:50:43.148Z,43
2024-03-03T19:00:54.620Z,43
2024-03-03T19:10:55.004Z,43
2024-03-03T19:21:07.180Z,43
2024-03-03T19:31:06.556Z,43
2024-03-03T19:41:15.712Z,43
2024-03-03T19:51:24.904Z,43
2024-03-03T20:01:34.480Z,43
2024-03-03T20:11:35.204Z,43
2024-03-03T20:21:44.040Z,43
2024-03-03T20:31:52.969Z,43
2024-03-03T20:42:02.220Z,42
2024-03-03T20:52:11.464Z,42
2024-03-03T21:02:15.818Z,42
2024-03-03T21:12:16.809Z,42
2024-03-03T21:22:26.072Z,42
2024-03-03T21:32:35.350Z,42
2024-03-03T21:42:44.409Z,41
2024-03-03T21:52:53.816Z,41
2024-03-03T22:03:02.719Z,41
2024-03-03T22:13:11.714Z,40
2024-03-03T22:23:21.347Z,40
2024-03-03T22:33:30.332Z,40
2024-03-03T22:43:39.543Z,40
2024-03-03T22:53:48.461Z,39
2024-03-03T23:03:57.898Z,38
2024-03-03T23:14:07.070Z,38
2024-03-03T23:24:16.050Z,38
2024-03-03T23:34:25.029Z,37
2024-03-03T23:44:33.959Z,37
2024-03-03T23:54:42.870Z,38
